Time;durP1;ratioP1;P1;durP2;ratioP2;P2;SDS_P1;SDS_P2;PMS_P1;PMS_P2;Temp;Humidity;BMP_temperature;BMP_pressure;BME280_temperature;BME280_humidity;BME280_pressure;Samples;Min_cycle;Max_cycle;Signal;HPM_P1;HPM_P2
2022/10/08 00:01:11;;;;;;;5.65;1.77;;;;;;;19.58;48.89;101577.31;5060768;28;20046;-60
2022/10/08 00:03:42;;;;;;;5.40;1.70;;;;;;;19.57;48.80;101572.13;5060385;28;20036;-61
2022/10/08 00:06:18;;;;;;;7.00;2.00;;;;;;;19.51;48.83;101564.66;5061115;28;20042;-61
2022/10/08 00:08:51;;;;;;;6.40;1.83;;;;;;;19.54;48.95;101556.50;5060732;28;20063;-61
2022/10/08 00:11:19;;;;;;;5.03;1.77;;;;;;;19.53;49.01;101560.09;5060489;28;20062;-62
2022/10/08 00:13:47;;;;;;;5.47;2.00;;;;;;;19.50;49.08;101560.31;5060553;28;20064;-62
2022/10/08 00:16:22;;;;;;;4.22;1.55;;;;;;;19.50;49.05;101561.19;5060384;28;20064;-61
2022/10/08 00:18:49;;;;;;;4.43;1.45;;;;;;;19.50;49.17;101562.97;5061048;28;20424;-60
2022/10/08 00:21:24;;;;;;;4.30;1.65;;;;;;;19.48;49.16;101557.78;5060755;28;20028;-61
2022/10/08 00:23:50;;;;;;;6.35;2.00;;;;;;;19.54;48.94;101564.44;5064455;28;20028;-61
2022/10/08 00:26:19;;;;;;;4.88;1.95;;;;;;;19.51;48.94;101570.78;5064482;28;20098;-61
2022/10/08 00:28:46;;;;;;;6.53;2.00;;;;;;;19.46;48.97;101567.66;5063908;28;20415;-60
2022/10/08 00:31:15;;;;;;;6.20;2.05;;;;;;;19.45;48.86;101563.31;5064137;28;20035;-61
2022/10/08 00:33:41;;;;;;;4.70;1.65;;;;;;;19.47;48.95;101564.06;5064259;28;20036;-61
2022/10/08 00:36:09;;;;;;;6.20;2.22;;;;;;;19.44;49.05;101558.13;5064268;28;20029;-63
2022/10/08 00:38:35;;;;;;;4.75;1.70;;;;;;;19.50;48.94;101566.47;5064093;28;20090;-62
2022/10/08 00:41:01;;;;;;;4.75;1.73;;;;;;;19.50;49.04;101574.41;5064045;28;20785;-62
2022/10/08 00:43:47;;;;;;;4.65;1.95;;;;;;;19.47;48.99;101563.19;5063956;28;20162;-60
2022/10/08 00:46:38;;;;;;;5.05;2.20;;;;;;;19.49;48.90;101558.66;5064007;28;20025;-62
2022/10/08 00:49:13;;;;;;;5.68;1.75;;;;;;;19.49;48.95;101564.78;5063726;28;20115;-61
2022/10/08 00:51:44;;;;;;;5.75;1.98;;;;;;;19.45;48.98;101567.75;5063840;28;20040;-62
2022/10/08 00:54:11;;;;;;;4.93;1.63;;;;;;;19.49;48.91;101577.16;5063702;28;20028;-62
2022/10/08 00:56:38;;;;;;;4.38;1.60;;;;;;;19.48;49.00;101578.94;5064056;28;20376;-61
2022/10/08 00:59:06;;;;;;;4.80;1.90;;;;;;;19.40;48.88;101568.94;5063576;28;20043;-61
2022/10/08 01:01:31;;;;;;;5.53;1.80;;;;;;;19.41;49.04;101572.44;5063585;28;20143;-62
2022/10/08 01:04:03;;;;;;;6.82;1.90;;;;;;;19.47;49.06;101581.69;5063962;28;20120;-61
2022/10/08 01:07:13;;;;;;;6.03;1.73;;;;;;;19.46;48.93;101585.31;5063722;28;20036;-62
2022/10/08 01:09:51;;;;;;;5.32;1.60;;;;;;;19.46;49.16;101586.16;5063285;28;20029;-62
2022/10/08 01:12:37;;;;;;;6.60;1.60;;;;;;;19.44;49.01;101582.78;5063318;28;20039;-61
2022/10/08 01:15:24;;;;;;;4.70;1.50;;;;;;;19.47;49.21;101602.84;5063805;28;20033;-61
2022/10/08 01:18:09;;;;;;;6.35;1.63;;;;;;;19.46;49.06;101611.75;5063629;28;20522;-62
2022/10/08 01:20:49;;;;;;;5.13;1.77;;;;;;;19.39;49.31;101592.84;5063306;28;20033;-61
2022/10/08 01:23:35;;;;;;;5.63;1.45;;;;;;;19.45;49.36;101604.78;5063020;28;20024;-61
2022/10/08 01:26:24;;;;;;;5.78;1.75;;;;;;;19.38;49.30;101594.66;5062972;28;20098;-62
2022/10/08 01:29:07;;;;;;;5.05;1.88;;;;;;;19.37;49.65;101590.31;5062940;28;20111;-61
2022/10/08 01:31:40;;;;;;;5.07;1.70;;;;;;;19.37;49.58;101586.84;5063125;28;20048;-62
2022/10/08 01:34:08;;;;;;;5.30;1.80;;;;;;;19.38;49.23;101589.38;5061474;28;20025;-62
2022/10/08 01:36:42;;;;;;;6.03;1.63;;;;;;;19.36;49.64;101580.72;5063118;28;20115;-61
2022/10/08 01:39:11;;;;;;;5.10;1.50;;;;;;;19.36;49.51;101586.00;5063173;28;20044;-60
2022/10/08 01:41:39;;;;;;;5.22;1.58;;;;;;;19.42;49.46;101600.53;5062868;28;20726;-61
2022/10/08 01:44:12;;;;;;;5.38;1.70;;;;;;;19.34;49.52;101587.06;5062872;28;20047;-63
2022/10/08 01:46:41;;;;;;;5.40;1.52;;;;;;;19.35;49.43;101591.41;5062994;28;20044;-61
2022/10/08 01:49:12;;;;;;;5.03;1.55;;;;;;;19.35;49.33;101592.22;5062770;28;20481;-63
2022/10/08 01:51:46;;;;;;;7.18;2.15;;;;;;;19.35;49.37;101591.41;5062837;28;20496;-62
2022/10/08 01:54:15;;;;;;;6.15;1.70;;;;;;;19.39;49.47;101606.06;5062792;28;20028;-62
2022/10/08 01:56:43;;;;;;;4.50;1.40;;;;;;;19.40;49.38;101599.81;5062394;28;20031;-60
2022/10/08 01:59:19;;;;;;;5.15;1.58;;;;;;;19.39;49.49;101625.44;5062526;28;20135;-61
2022/10/08 02:01:58;;;;;;;5.70;1.55;;;;;;;19.38;49.48;101620.25;5062630;28;20027;-60
2022/10/08 02:04:36;;;;;;;5.32;2.05;;;;;;;19.32;49.67;101610.97;5062594;28;20032;-60
2022/10/08 02:07:19;;;;;;;4.88;1.50;;;;;;;19.37;49.67;101621.19;5062472;28;20032;-60
2022/10/08 02:10:13;;;;;;;5.30;1.27;;;;;;;19.38;49.80;101622.91;5062093;28;20033;-62
2022/10/08 02:12:40;;;;;;;4.07;1.33;;;;;;;19.37;49.58;101623.84;5060887;28;20373;-61
2022/10/08 02:15:10;;;;;;;4.07;1.60;;;;;;;19.37;49.61;101623.84;5062101;28;20035;-62
2022/10/08 02:17:48;;;;;;;4.00;1.20;;;;;;;19.31;49.81;101608.44;5062643;28;20484;-64
2022/10/08 02:20:25;;;;;;;5.38;2.05;;;;;;;19.29;49.73;101610.34;5062347;28;20051;-61
2022/10/08 02:22:57;;;;;;;3.40;1.33;;;;;;;19.36;49.95;101619.53;5062367;28;20484;-62
2022/10/08 02:25:28;;;;;;;3.40;1.33;;;;;;;19.36;49.99;101625.66;5061512;28;20045;-61
2022/10/08 02:28:35;;;;;;;4.63;1.27;;;;;;;19.27;49.88;101604.34;5061877;28;20457;-63
2022/10/08 02:31:17;;;;;;;3.63;1.30;;;;;;;19.35;49.61;101623.13;5061774;28;20020;-62
2022/10/08 02:33:48;;;;;;;4.07;1.50;;;;;;;19.27;50.17;101613.13;5061772;28;20044;-64
2022/10/08 02:36:18;;;;;;;4.32;1.30;;;;;;;19.34;49.95;101624.94;5062200;28;20040;-64
2022/10/08 02:38:51;;;;;;;3.70;1.40;;;;;;;19.30;50.10;101622.63;5061542;28;20376;-60
2022/10/08 02:41:20;;;;;;;3.47;1.30;;;;;;;19.26;50.14;101619.34;5061650;28;20029;-60
2022/10/08 02:43:47;;;;;;;4.30;1.38;;;;;;;19.25;50.02;101607.09;5061234;28;20032;-62
2022/10/08 02:46:17;;;;;;;4.63;1.40;;;;;;;19.31;49.89;101619.00;5061471;28;20036;-60
2022/10/08 02:48:53;;;;;;;4.95;1.45;;;;;;;19.25;49.68;101614.16;5061676;28;20028;-62
2022/10/08 02:51:20;;;;;;;4.90;1.40;;;;;;;19.22;49.90;101602.03;5061684;28;20492;-60
2022/10/08 02:53:47;;;;;;;4.28;1.40;;;;;;;19.30;50.08;101618.19;5061720;28;20113;-61
2022/10/08 02:56:26;;;;;;;4.20;1.27;;;;;;;19.29;50.00;101611.19;5061266;28;20033;-61
2022/10/08 02:58:52;;;;;;;3.47;1.10;;;;;;;19.23;50.00;101606.34;5061977;28;20486;-62
2022/10/08 03:01:27;;;;;;;3.30;1.10;;;;;;;19.25;50.28;101607.09;5061246;28;20045;-61
2022/10/08 03:04:02;;;;;;;3.67;1.33;;;;;;;19.24;50.35;101608.06;5062029;28;20028;-61
2022/10/08 03:06:28;;;;;;;4.47;1.40;;;;;;;19.23;50.10;101605.53;5061320;28;20526;-61
2022/10/08 03:08:55;;;;;;;3.97;1.10;;;;;;;19.26;49.86;101605.28;5061375;28;20017;-61
2022/10/08 03:11:22;;;;;;;5.47;1.77;;;;;;;19.20;49.89;101606.56;5061058;28;20064;-61
2022/10/08 03:13:48;;;;;;;4.88;1.48;;;;;;;19.19;50.32;101610.19;5061033;28;20073;-61
2022/10/08 03:16:18;;;;;;;3.88;1.50;;;;;;;19.24;49.97;101620.44;5061586;28;20021;-63
2022/10/08 03:18:45;;;;;;;5.30;1.50;;;;;;;19.20;50.22;101611.88;5061486;28;20044;-63
2022/10/08 03:21:13;;;;;;;4.20;1.10;;;;;;;19.19;50.06;101616.31;5061148;28;20499;-61
2022/10/08 03:23:39;;;;;;;3.25;1.30;;;;;;;19.26;50.21;101629.06;5061041;28;20082;-61
2022/10/08 03:26:04;;;;;;;4.07;1.30;;;;;;;19.26;50.29;101631.72;5060925;28;20725;-62
2022/10/08 03:28:30;;;;;;;6.28;1.50;;;;;;;19.20;50.24;101628.59;5061017;28;20026;-62
2022/10/08 03:30:55;;;;;;;3.20;1.20;;;;;;;19.20;50.46;101633.00;5061178;28;20033;-63
2022/10/08 03:33:20;;;;;;;3.65;1.15;;;;;;;19.18;50.14;101629.63;5061014;28;20775;-62
2022/10/08 03:35:46;;;;;;;5.07;1.73;;;;;;;19.23;50.45;101642.50;5061066;28;20028;-61
2022/10/08 03:38:16;;;;;;;4.50;1.30;;;;;;;19.18;50.32;101640.22;5060757;28;20457;-63
2022/10/08 03:40:43;;;;;;;3.33;1.08;;;;;;;19.22;50.41;101641.69;5060837;28;20115;-61
2022/10/08 03:43:08;;;;;;;3.28;1.10;;;;;;;19.20;50.27;101644.44;5060686;28;20131;-61
2022/10/08 03:45:33;;;;;;;3.35;1.13;;;;;;;19.22;50.22;101652.25;5061132;28;20417;-63
2022/10/08 03:47:59;;;;;;;3.03;0.90;;;;;;;19.15;50.29;101649.22;5060833;28;20041;-64
2022/10/08 03:50:25;;;;;;;4.63;1.37;;;;;;;19.19;50.10;101653.31;5061085;28;20029;-62
2022/10/08 03:52:50;;;;;;;3.90;1.35;;;;;;;19.20;50.38;101660.28;5060712;28;20383;-62
2022/10/08 03:55:15;;;;;;;2.60;1.10;;;;;;;19.13;50.47;101651.09;5061485;28;20111;-61
2022/10/08 03:57:40;;;;;;;3.03;1.15;;;;;;;19.19;50.41;101663.03;5064698;28;20421;-62
2022/10/08 04:00:07;;;;;;;2.07;0.87;;;;;;;19.20;50.20;101659.44;5065191;28;20460;-61
2022/10/08 04:02:32;;;;;;;3.20;1.10;;;;;;;19.13;50.26;101648.47;5064990;28;20366;-63
2022/10/08 04:04:57;;;;;;;2.90;1.10;;;;;;;19.19;50.31;101666.53;5065053;28;20062;-62
2022/10/08 04:07:22;;;;;;;2.65;0.98;;;;;;;19.19;50.32;101658.59;5064585;28;20037;-62
2022/10/08 04:09:48;;;;;;;3.17;1.10;;;;;;;19.17;50.02;101657.03;5064808;28;20031;-61
2022/10/08 04:12:13;;;;;;;3.95;1.15;;;;;;;19.07;50.35;101648.06;5064825;28;20253;-62
2022/10/08 04:14:38;;;;;;;3.10;1.08;;;;;;;19.12;50.04;101657.38;5064791;28;20032;-61
2022/10/08 04:17:04;;;;;;;2.83;1.00;;;;;;;19.15;50.29;101670.38;5064571;28;20115;-61
2022/10/08 04:19:29;;;;;;;3.27;1.13;;;;;;;19.11;50.41;101657.47;5064490;28;20265;-60
2022/10/08 04:21:54;;;;;;;2.63;1.10;;;;;;;19.17;50.20;101670.25;5064177;28;20276;-60
2022/10/08 04:24:19;;;;;;;2.75;1.10;;;;;;;19.15;50.34;101667.72;5064595;28;20115;-62
2022/10/08 04:26:45;;;;;;;3.40;1.20;;;;;;;19.10;50.27;101661.06;5064511;28;20051;-61
2022/10/08 04:29:11;;;;;;;3.70;1.30;;;;;;;19.13;50.36;101666.13;5064316;28;20276;-61
2022/10/08 04:31:37;;;;;;;3.78;1.20;;;;;;;19.12;50.46;101675.88;5064431;28;20295;-62
2022/10/08 04:34:02;;;;;;;4.35;1.42;;;;;;;19.10;50.28;101669.81;5064455;28;20028;-62
2022/10/08 04:36:27;;;;;;;4.28;1.23;;;;;;;19.13;50.60;101681.97;5064398;28;20043;-61
2022/10/08 04:38:53;;;;;;;3.20;1.65;;;;;;;19.15;50.55;101682.72;5064358;28;20119;-60
2022/10/08 04:41:24;;;;;;;4.60;1.73;;;;;;;19.14;50.43;101688.97;5064074;28;20032;-61
2022/10/08 04:43:50;;;;;;;3.45;1.58;;;;;;;19.15;50.68;101693.28;5064487;28;20376;-60
2022/10/08 04:46:17;;;;;;;4.40;1.60;;;;;;;19.11;50.78;101692.66;5064022;28;20036;-61
2022/10/08 04:48:48;;;;;;;4.75;2.30;;;;;;;19.12;50.54;101693.50;5064196;28;20063;-60
2022/10/08 04:51:14;;;;;;;4.22;2.00;;;;;;;19.05;50.63;101686.97;5063804;28;20102;-61
2022/10/08 04:53:40;;;;;;;5.57;2.55;;;;;;;19.12;50.60;101707.56;5064207;28;20025;-61
2022/10/08 04:56:08;;;;;;;4.78;2.42;;;;;;;19.07;50.53;101703.56;5063578;28;20025;-61
2022/10/08 04:58:33;;;;;;;4.70;2.50;;;;;;;19.13;50.81;101716.34;5063915;28;20469;-62
2022/10/08 05:01:04;;;;;;;5.82;2.40;;;;;;;19.11;50.62;101716.44;5063979;28;20086;-62
2022/10/08 05:03:30;;;;;;;5.53;2.67;;;;;;;19.13;50.91;101727.72;5063998;28;20032;-62
2022/10/08 05:05:55;;;;;;;6.22;2.65;;;;;;;19.12;50.81;101728.72;5063326;28;20043;-63
2022/10/08 05:08:20;;;;;;;6.63;2.93;;;;;;;19.09;50.87;101722.78;5063069;28;20492;-62
2022/10/08 05:10:49;;;;;;;5.85;2.83;;;;;;;19.12;51.02;101725.19;5063463;28;20613;-62
2022/10/08 05:13:14;;;;;;;4.57;2.53;;;;;;;19.11;50.88;101726.19;5063622;28;20123;-63
2022/10/08 05:15:39;;;;;;;5.43;3.05;;;;;;;19.05;50.98;101719.53;5063746;28;20447;-61
2022/10/08 05:18:04;;;;;;;6.50;3.60;;;;;;;19.06;50.84;101726.50;5063911;28;20043;-61
2022/10/08 05:20:30;;;;;;;5.47;3.55;;;;;;;19.04;50.87;101720.47;5063560;28;20082;-62
2022/10/08 05:22:55;;;;;;;6.70;3.10;;;;;;;19.11;50.71;101732.28;5063758;28;20093;-63
2022/10/08 05:25:20;;;;;;;6.20;3.65;;;;;;;19.12;50.98;101733.13;5063704;28;20277;-61
2022/10/08 05:27:45;;;;;;;5.53;3.23;;;;;;;19.10;50.82;101727.94;5063576;28;20528;-62
2022/10/08 05:30:11;;;;;;;6.78;4.22;;;;;;;19.05;51.04;101724.81;5063519;28;20258;-61
2022/10/08 05:32:36;;;;;;;6.22;3.85;;;;;;;19.03;50.97;101729.34;5063313;28;20031;-62
2022/10/08 05:35:01;;;;;;;7.35;3.90;;;;;;;19.06;50.95;101739.72;5062948;28;20034;-59
2022/10/08 05:37:27;;;;;;;8.52;4.10;;;;;;;19.08;51.02;101729.03;5063136;28;20439;-61
2022/10/08 05:39:52;;;;;;;6.70;3.90;;;;;;;19.11;51.08;101742.88;5063472;28;20097;-61
2022/10/08 05:42:17;;;;;;;6.70;4.07;;;;;;;19.11;51.33;101744.66;5062828;28;20060;-65
2022/10/08 05:44:42;;;;;;;6.30;4.40;;;;;;;19.13;51.04;101758.59;5063052;28;20034;-62
2022/10/08 05:47:08;;;;;;;5.93;3.87;;;;;;;19.10;51.20;101751.72;5063135;28;20016;-63
2022/10/08 05:49:33;;;;;;;6.40;3.90;;;;;;;19.07;51.25;101749.31;5063038;28;20254;-61
2022/10/08 05:51:58;;;;;;;7.27;4.27;;;;;;;19.10;51.37;101764.94;5062847;28;20394;-62
2022/10/08 05:54:24;;;;;;;6.35;3.83;;;;;;;19.08;50.96;101756.28;5062906;28;20315;-61
2022/10/08 05:56:49;;;;;;;7.30;4.57;;;;;;;19.09;51.54;101762.41;5062959;28;20998;-62
2022/10/08 05:59:17;;;;;;;7.40;4.85;;;;;;;19.05;51.21;101760.94;5063082;28;20120;-62
2022/10/08 06:01:43;;;;;;;8.05;4.80;;;;;;;19.07;51.25;101770.44;5062089;28;20349;-63
2022/10/08 06:04:09;;;;;;;7.95;5.05;;;;;;;19.12;51.15;101778.03;5062611;28;20055;-61
2022/10/08 06:06:37;;;;;;;8.25;5.20;;;;;;;19.07;51.34;101773.09;5062312;28;20107;-62
2022/10/08 06:09:03;;;;;;;7.55;4.97;;;;;;;19.13;51.21;101779.75;5062264;28;20069;-61
2022/10/08 06:11:31;;;;;;;8.52;5.57;;;;;;;19.08;51.29;101771.31;5062226;28;20040;-61
2022/10/08 06:13:58;;;;;;;7.88;5.20;;;;;;;19.08;51.21;101782.72;5062546;28;20126;-62
2022/10/08 06:16:24;;;;;;;8.65;5.85;;;;;;;19.14;51.17;101795.50;5062311;28;20032;-61
2022/10/08 06:18:49;;;;;;;8.23;5.43;;;;;;;19.07;51.26;101780.19;5062334;28;20032;-66
2022/10/08 06:21:18;;;;;;;11.50;5.60;;;;;;;19.11;51.24;101800.16;5061962;28;20376;-63
2022/10/08 06:23:48;;;;;;;8.98;5.78;;;;;;;19.09;51.22;101797.63;5062071;28;20024;-61
2022/10/08 06:26:16;;;;;;;7.45;5.45;;;;;;;19.16;51.25;101822.66;5061741;28;20041;-61
2022/10/08 06:28:41;;;;;;;7.32;5.10;;;;;;;19.11;51.34;101803.63;5061914;28;20044;-61
2022/10/08 06:31:07;;;;;;;8.20;5.57;;;;;;;19.15;51.66;101802.47;5062234;28;20036;-62
2022/10/08 06:33:33;;;;;;;8.20;5.50;;;;;;;19.15;51.73;101804.25;5060268;28;20412;-61
2022/10/08 06:36:13;;;;;;;9.23;6.13;;;;;;;19.25;51.61;101822.94;5062148;28;20036;-65
2022/10/08 06:38:38;;;;;;;8.90;6.20;;;;;;;19.16;51.59;101821.81;5061944;28;20036;-62
2022/10/08 06:41:03;;;;;;;8.30;5.93;;;;;;;19.16;51.81;101819.16;5061620;28;20032;-62
2022/10/08 06:43:29;;;;;;;11.35;7.55;;;;;;;19.24;51.78;101837.97;5061906;28;20068;-62
2022/10/08 06:45:55;;;;;;;9.95;6.85;;;;;;;19.17;51.89;101832.28;5061737;28;20031;-61
2022/10/08 06:48:22;;;;;;;8.50;6.00;;;;;;;19.25;51.77;101844.09;5061803;28;20024;-60
2022/10/08 06:50:47;;;;;;;8.50;5.65;;;;;;;19.26;51.95;101848.44;5061809;28;20144;-60
2022/10/08 06:53:12;;;;;;;9.10;6.10;;;;;;;19.23;52.00;101848.63;5061617;28;20127;-61
2022/10/08 06:55:37;;;;;;;10.67;6.53;;;;;;;19.25;51.92;101846.72;5061377;28;20283;-61
2022/10/08 06:58:04;;;;;;;9.70;6.53;;;;;;;19.33;51.92;101869.03;5061480;28;20264;-60
2022/10/08 07:00:30;;;;;;;11.90;5.95;;;;;;;19.31;51.79;101867.44;5061581;28;20028;-61
2022/10/08 07:02:56;;;;;;;8.20;6.00;;;;;;;19.29;51.88;101864.06;5061385;28;20032;-60
2022/10/08 07:05:21;;;;;;;9.48;6.32;;;;;;;19.31;52.11;101870.94;5061550;28;20039;-62
2022/10/08 07:07:46;;;;;;;8.32;5.95;;;;;;;19.40;52.00;101893.22;5061654;28;20117;-60
2022/10/08 07:10:12;;;;;;;9.23;6.37;;;;;;;19.42;51.99;101899.25;5061289;28;20071;-60
2022/10/08 07:12:37;;;;;;;8.20;5.80;;;;;;;19.42;52.17;101895.78;5061426;28;20754;-61
2022/10/08 07:15:03;;;;;;;9.05;5.68;;;;;;;19.42;52.19;101893.97;5061169;28;20028;-62
2022/10/08 07:17:29;;;;;;;7.68;5.78;;;;;;;19.43;51.99;101903.59;5061115;28;20037;-61
2022/10/08 07:19:55;;;;;;;8.10;5.63;;;;;;;19.42;52.06;101901.91;5061201;28;20037;-61
2022/10/08 07:22:20;;;;;;;7.85;5.15;;;;;;;19.43;52.36;101903.59;5061167;28;20078;-60
2022/10/08 07:24:45;;;;;;;7.88;5.55;;;;;;;19.46;52.27;101913.13;5061128;28;20028;-61
2022/10/08 07:27:11;;;;;;;9.23;5.43;;;;;;;19.46;52.29;101908.66;5061338;28;20102;-61
2022/10/08 07:29:37;;;;;;;9.60;5.22;;;;;;;19.46;52.16;101911.31;5060950;28;20273;-61
2022/10/08 07:32:02;;;;;;;8.90;6.07;;;;;;;19.51;52.20;101925.03;5060823;28;20039;-64
2022/10/08 07:34:28;;;;;;;6.60;5.43;;;;;;;19.53;52.19;101925.78;5061026;28;20056;-62
2022/10/08 07:36:53;;;;;;;7.65;5.07;;;;;;;19.50;52.28;101930.44;5061206;28;20056;-61
2022/10/08 07:39:18;;;;;;;8.85;5.28;;;;;;;19.51;52.22;101927.69;5061021;28;20078;-61
2022/10/08 07:41:44;;;;;;;7.20;5.30;;;;;;;19.51;52.19;101926.84;5061209;28;20055;-61
2022/10/08 07:44:11;;;;;;;10.50;5.50;;;;;;;19.51;52.12;101926.84;5060956;28;20063;-62
2022/10/08 07:46:40;;;;;;;6.97;5.38;;;;;;;19.57;52.15;101942.28;5061008;28;20174;-61
2022/10/08 07:49:06;;;;;;;8.15;5.15;;;;;;;19.59;52.06;101945.66;5060986;28;20078;-66
2022/10/08 07:51:32;;;;;;;7.85;4.65;;;;;;;19.53;52.54;101946.94;5059225;28;20028;-68
2022/10/08 07:53:58;;;;;;;7.82;4.55;;;;;;;19.38;52.42;101911.84;5060419;28;20039;-71
2022/10/08 07:56:24;;;;;;;8.18;4.47;;;;;;;19.64;52.51;101945.34;5059975;28;20020;-69
2022/10/08 07:58:49;;;;;;;8.25;4.60;;;;;;;19.64;52.05;101942.69;5059542;28;20139;-70
2022/10/08 08:01:20;;;;;;;6.88;4.18;;;;;;;19.70;51.79;101942.28;5060522;28;20024;-68
2022/10/08 08:03:52;;;;;;;9.70;4.50;;;;;;;19.73;51.88;101950.00;5059820;28;20021;-71
2022/10/08 08:06:18;;;;;;;6.63;3.95;;;;;;;19.82;51.85;101953.81;5059834;28;20443;-71
2022/10/08 08:08:44;;;;;;;6.90;4.03;;;;;;;19.87;51.65;101957.81;5059682;28;20032;-69
2022/10/08 08:11:12;;;;;;;8.32;4.53;;;;;;;19.88;51.55;101963.94;5059851;28;20076;-70
2022/10/08 08:13:39;;;;;;;9.10;4.22;;;;;;;19.93;51.44;101970.63;5059665;28;20205;-71
2022/10/08 08:16:07;;;;;;;7.18;3.58;;;;;;;19.87;51.33;101960.47;5060005;28;20033;-69
2022/10/08 08:18:35;;;;;;;7.07;3.45;;;;;;;19.90;51.23;101962.91;5059849;28;20032;-67
2022/10/08 08:21:06;;;;;;;9.32;4.30;;;;;;;19.97;51.07;101978.34;5059924;28;20424;-71
2022/10/08 08:23:35;;;;;;;6.32;3.95;;;;;;;20.03;51.23;101988.50;5059664;28;20031;-68
2022/10/08 08:26:01;;;;;;;6.43;3.53;;;;;;;20.04;51.08;101987.50;5059461;28;20048;-69
2022/10/08 08:28:27;;;;;;;5.82;3.30;;;;;;;20.05;51.13;101990.06;5060084;28;20469;-69
2022/10/08 08:30:53;;;;;;;5.82;3.17;;;;;;;20.09;51.03;101995.97;5059630;28;20039;-70
2022/10/08 08:33:18;;;;;;;6.38;3.50;;;;;;;20.04;50.87;101995.44;5060391;28;20032;-68
2022/10/08 08:35:51;;;;;;;6.60;3.57;;;;;;;20.07;50.89;102001.38;5059564;28;20028;-67
2022/10/08 08:38:16;;;;;;;6.70;3.65;;;;;;;20.05;50.66;101994.50;5059939;28;20327;-72
2022/10/08 08:40:41;;;;;;;7.45;3.38;;;;;;;20.11;50.97;102007.31;5059957;28;20041;-70
2022/10/08 08:43:07;;;;;;;5.25;3.03;;;;;;;20.15;50.83;102011.41;5060135;28;20028;-66
2022/10/08 08:45:35;;;;;;;6.75;3.10;;;;;;;20.14;50.81;102009.72;5063333;28;20120;-66
2022/10/08 08:48:17;;;;;;;5.55;3.22;;;;;;;20.13;50.76;102012.50;5062927;28;20209;-66
2022/10/08 08:50:45;;;;;;;5.45;3.17;;;;;;;19.97;50.58;101989.75;5062701;28;20032;-69
2022/10/08 08:53:10;;;;;;;6.93;3.20;;;;;;;20.19;50.69;102026.13;5063254;28;20032;-67
2022/10/08 08:55:42;;;;;;;5.78;3.50;;;;;;;20.16;50.69;102018.41;5063335;28;20099;-69
2022/10/08 08:58:33;;;;;;;5.15;2.80;;;;;;;20.22;50.56;102032.97;5062912;28;20039;-69
2022/10/08 09:01:07;;;;;;;4.75;2.58;;;;;;;20.24;50.39;102033.75;5062739;28;20040;-70
2022/10/08 09:03:55;;;;;;;6.75;2.78;;;;;;;20.19;50.96;102026.13;5063209;28;20040;-68
2022/10/08 09:06:23;;;;;;;5.47;2.45;;;;;;;20.19;50.68;102025.28;5063040;28;20033;-69
2022/10/08 09:09:00;;;;;;;5.32;2.60;;;;;;;20.25;50.54;102036.28;5062250;28;20039;-72
2022/10/08 09:11:28;;;;;;;5.75;2.88;;;;;;;20.27;50.38;102038.81;5062409;28;20055;-69
2022/10/08 09:13:59;;;;;;;5.93;2.42;;;;;;;20.15;50.40;102021.16;5062991;28;20524;-69
2022/10/08 09:16:27;;;;;;;6.18;2.35;;;;;;;20.24;50.24;102034.56;5063051;28;20115;-69
2022/10/08 09:18:52;;;;;;;4.88;2.47;;;;;;;20.25;50.18;102038.06;5062833;28;20486;-65
2022/10/08 09:21:18;;;;;;;5.30;2.38;;;;;;;20.24;50.23;102036.38;5062654;28;20029;-65
2022/10/08 09:23:44;;;;;;;5.40;2.50;;;;;;;20.23;50.28;102039.97;5062605;28;20032;-68
2022/10/08 09:26:18;;;;;;;6.97;2.47;;;;;;;20.26;50.19;102060.94;5061664;28;20091;-68
2022/10/08 09:28:46;;;;;;;6.50;2.50;;;;;;;20.20;50.19;102058.72;5062923;28;20461;-68
2022/10/08 09:31:25;;;;;;;5.03;2.30;;;;;;;20.26;50.01;102068.88;5062280;28;20036;-72
2022/10/08 09:33:59;;;;;;;4.45;2.03;;;;;;;20.25;50.47;102065.41;5062455;28;20041;-70
2022/10/08 09:37:02;;;;;;;7.80;2.17;;;;;;;20.28;50.10;102072.25;5062218;28;20047;-69
2022/10/08 09:39:33;;;;;;;4.68;1.70;;;;;;;20.22;50.04;102064.75;5055715;28;20683;-69
2022/10/08 09:42:13;;;;;;;6.10;1.95;;;;;;;20.30;50.01;102084.44;5062017;28;20495;-71
2022/10/08 09:44:48;;;;;;;5.65;2.00;;;;;;;20.30;49.80;102084.44;5062586;28;20043;-68
2022/10/08 09:47:23;;;;;;;4.72;1.88;;;;;;;20.28;49.69;102083.72;5062285;28;20512;-69
2022/10/08 09:50:17;;;;;;;5.38;2.05;;;;;;;20.24;49.69;102084.03;5060976;28;20047;-70
2022/10/08 09:52:44;;;;;;;5.72;1.80;;;;;;;20.18;49.84;102085.28;5062554;28;20029;-69
2022/10/08 09:55:15;;;;;;;6.18;2.10;;;;;;;20.25;50.03;102097.16;5061220;28;20495;-68
2022/10/08 09:57:50;;;;;;;5.82;1.80;;;;;;;20.23;49.53;102103.50;5061960;28;20032;-70
2022/10/08 10:00:23;;;;;;;9.90;2.00;;;;;;;20.23;49.80;102106.16;5061866;28;20115;-69
2022/10/08 10:02:53;;;;;;;6.10;1.77;;;;;;;20.21;49.85;102097.47;5061897;28;20267;-69
2022/10/08 10:05:30;;;;;;;4.78;1.85;;;;;;;20.03;49.96;102073.16;5062220;28;20063;-69
2022/10/08 10:07:56;;;;;;;5.45;2.00;;;;;;;20.10;50.01;102090.28;5061772;28;20074;-72
2022/10/08 10:10:27;;;;;;;5.70;2.00;;;;;;;20.23;49.78;102112.28;5061620;28;20032;-70
2022/10/08 10:13:05;;;;;;;5.97;1.75;;;;;;;20.15;49.62;102097.91;5061252;28;20028;-70
2022/10/08 10:15:37;;;;;;;3.58;1.70;;;;;;;20.15;49.52;102101.38;5061663;28;20025;-70
2022/10/08 10:18:10;;;;;;;5.57;1.65;;;;;;;20.18;49.27;102109.13;5061800;28;20629;-71
2022/10/08 10:20:41;;;;;;;6.63;2.08;;;;;;;20.23;49.25;102109.63;5061375;28;21052;-69
2022/10/08 10:23:13;;;;;;;3.95;1.65;;;;;;;20.22;49.40;102105.31;5061410;28;20087;-69
2022/10/08 10:25:47;;;;;;;4.55;1.50;;;;;;;20.20;49.38;102103.72;5061058;28;20056;-71
2022/10/08 10:28:18;;;;;;;6.90;1.90;;;;;;;20.23;49.21;102114.09;5061748;28;20062;-64
2022/10/08 10:30:59;;;;;;;5.72;1.75;;;;;;;20.17;49.15;102103.94;5060664;28;20029;-66
2022/10/08 10:33:30;;;;;;;5.53;1.48;;;;;;;20.19;49.18;102110.81;5061099;28;20142;-65
2022/10/08 10:35:59;;;;;;;5.10;1.40;;;;;;;20.21;49.57;102121.31;5062060;28;20032;-63
2022/10/08 10:38:29;;;;;;;4.35;1.38;;;;;;;20.14;49.41;102115.59;5060825;28;20051;-64
2022/10/08 10:41:14;;;;;;;4.78;1.63;;;;;;;20.16;49.14;102118.97;5061702;28;20484;-63
2022/10/08 10:43:53;;;;;;;3.20;1.30;;;;;;;20.17;49.55;102122.47;5061693;28;20338;-63
2022/10/08 10:46:35;;;;;;;4.68;1.77;;;;;;;20.15;49.73;102116.44;5061740;28;20038;-64
2022/10/08 10:49:00;;;;;;;4.20;1.63;;;;;;;20.19;49.12;102129.34;5061984;28;20139;-67
2022/10/08 10:51:49;;;;;;;6.55;1.50;;;;;;;20.14;49.19;102120.03;5061720;28;20151;-66
2022/10/08 10:54:41;;;;;;;4.85;1.70;;;;;;;20.10;49.22;102119.41;5061384;28;20372;-64
2022/10/08 10:57:32;;;;;;;4.53;1.40;;;;;;;20.16;49.21;102129.56;5061565;28;20025;-64
2022/10/08 11:00:15;;;;;;;5.32;1.50;;;;;;;20.16;49.18;102139.31;5061260;28;20457;-65
2022/10/08 11:02:45;;;;;;;4.03;1.37;;;;;;;20.15;49.41;102132.31;5061384;28;20020;-64
2022/10/08 11:05:22;;;;;;;4.88;1.60;;;;;;;20.16;49.29;102134.84;5060547;28;20024;-64
2022/10/08 11:08:03;;;;;;;5.18;1.40;;;;;;;20.10;49.44;102119.41;5061161;28;20423;-64
2022/10/08 11:10:49;;;;;;;4.88;1.25;;;;;;;20.15;47.99;102133.16;5061199;28;20024;-62
2022/10/08 11:13:35;;;;;;;5.72;1.52;;;;;;;20.14;48.86;102134.13;5060780;28;20377;-63
2022/10/08 11:16:22;;;;;;;5.30;1.58;;;;;;;20.12;48.97;102141.31;5061406;28;20081;-64
2022/10/08 11:18:52;;;;;;;5.55;1.33;;;;;;;20.10;49.15;102140.56;5061443;28;20055;-64
2022/10/08 11:21:24;;;;;;;3.78;1.20;;;;;;;20.10;49.07;102148.50;5061291;28;20487;-67
2022/10/08 11:23:59;;;;;;;4.05;1.30;;;;;;;20.07;48.46;102133.69;5058837;28;20031;-66
2022/10/08 11:26:36;;;;;;;6.13;1.38;;;;;;;20.08;49.08;102134.53;5060198;28;20048;-71
2022/10/08 11:29:16;;;;;;;4.25;1.58;;;;;;;20.05;49.13;102140.06;5060426;28;20041;-67
2022/10/08 11:31:47;;;;;;;4.47;1.40;;;;;;;20.00;49.07;102135.06;5060331;28;20119;-70
2022/10/08 11:34:28;;;;;;;4.30;1.42;;;;;;;19.98;48.98;102130.81;5060489;28;20036;-68
2022/10/08 11:37:21;;;;;;;7.57;1.48;;;;;;;20.05;48.88;102155.94;5060646;28;20036;-69
2022/10/08 11:40:20;;;;;;;3.55;1.20;;;;;;;20.08;49.01;102155.72;5060423;28;20135;-68